createdAt,value
2019-05-01T00:00:41.875Z,7.83
2019-05-01T00:03:10.223Z,8.27
2019-05-01T00:05:38.515Z,11.80
2019-05-01T00:08:05.758Z,11.40
2019-05-01T00:10:32.340Z,8.47
2019-05-01T00:12:58.781Z,7.73
2019-05-01T00:15:27.046Z,7.00
2019-05-01T00:17:53.495Z,8.80
2019-05-01T00:20:20.247Z,7.50
2019-05-01T00:22:46.630Z,7.80
2019-05-01T00:25:13.185Z,9.43
2019-05-01T00:27:39.776Z,11.47
2019-05-01T00:30:08.223Z,10.30
2019-05-01T00:32:34.611Z,7.00
2019-05-01T00:35:01.051Z,9.20
2019-05-01T00:37:27.533Z,8.40
2019-05-01T00:39:54.188Z,7.30
2019-05-01T00:42:20.656Z,8.47
2019-05-01T00:44:47.035Z,9.40
2019-05-01T00:47:13.419Z,8.87
2019-05-01T00:49:39.859Z,7.03
2019-05-01T00:52:06.335Z,12.10
2019-05-01T00:54:34.683Z,7.73
2019-05-01T00:57:02.969Z,7.53
2019-05-01T00:59:31.316Z,9.53
2019-05-01T01:01:59.812Z,6.93
2019-05-01T01:04:26.367Z,8.03
2019-05-01T01:06:52.731Z,7.83
2019-05-01T01:09:19.375Z,7.93
2019-05-01T01:11:45.850Z,7.10
2019-05-01T01:14:12.399Z,8.77
2019-05-01T01:16:39.128Z,9.53
2019-05-01T01:19:05.575Z,9.93
2019-05-01T01:21:32.129Z,10.93
2019-05-01T01:23:59.523Z,6.30
2019-05-01T01:26:26.015Z,7.67
2019-05-01T01:28:52.384Z,9.47
2019-05-01T01:31:18.827Z,7.80
2019-05-01T01:33:45.407Z,7.50
2019-05-01T01:36:11.791Z,7.47
2019-05-01T01:38:38.267Z,8.27
2019-05-01T01:41:04.820Z,10.70
2019-05-01T01:43:33.313Z,8.30
2019-05-01T01:46:01.663Z,7.00
2019-05-01T01:48:28.136Z,6.87
2019-05-01T01:50:54.684Z,9.07
2019-05-01T01:53:21.474Z,7.93
2019-05-01T01:55:48.537Z,8.77
2019-05-01T01:58:15.308Z,8.27
2019-05-01T02:00:43.671Z,7.27
2019-05-01T02:03:10.248Z,13.60
2019-05-01T02:05:38.593Z,7.13
2019-05-01T02:08:05.162Z,8.40
2019-05-01T02:10:42.685Z,7.60
2019-05-01T02:13:00.620Z,9.33
2019-05-01T02:15:27.067Z,8.27
2019-05-01T02:17:53.644Z,7.60
2019-05-01T02:20:20.088Z,7.03
2019-05-01T02:22:46.431Z,7.40
2019-05-01T02:25:14.005Z,7.67
2019-05-01T02:27:42.372Z,7.80
2019-05-01T02:30:10.762Z,7.57
2019-05-01T02:32:38.004Z,7.77
2019-05-01T02:35:05.680Z,7.00
2019-05-01T02:37:32.843Z,7.13
2019-05-01T02:40:04.221Z,7.40
2019-05-01T02:42:31.467Z,8.80
2019-05-01T02:44:58.439Z,10.40
2019-05-01T02:47:26.796Z,7.47
2019-05-01T02:49:55.096Z,7.63
2019-05-01T02:52:23.439Z,8.77
2019-05-01T02:54:50.731Z,8.93
2019-05-01T02:57:19.678Z,8.23
2019-05-01T02:59:48.053Z,9.23
2019-05-01T03:02:15.103Z,7.27
2019-05-01T03:04:41.872Z,9.20
2019-05-01T03:07:08.514Z,8.60
2019-05-01T03:09:34.981Z,6.90
2019-05-01T03:12:02.035Z,6.73
2019-05-01T03:14:29.895Z,7.07
2019-05-01T03:16:58.548Z,7.43
2019-05-01T03:19:27.234Z,8.77
2019-05-01T03:21:55.690Z,9.67
2019-05-01T03:24:24.276Z,7.57
2019-05-01T03:26:50.772Z,9.10
2019-05-01T03:29:17.227Z,7.80
2019-05-01T03:31:43.913Z,7.60
2019-05-01T03:34:10.378Z,9.37
2019-05-01T03:36:37.316Z,7.97
2019-05-01T03:39:04.878Z,8.90
2019-05-01T03:41:31.473Z,8.97
2019-05-01T03:43:58.014Z,7.40
2019-05-01T03:46:24.725Z,11.20
2019-05-01T03:48:51.068Z,7.93
2019-05-01T03:51:17.543Z,7.53
2019-05-01T03:53:44.099Z,7.50
2019-05-01T03:56:10.661Z,8.60
2019-05-01T03:58:37.151Z,8.77
2019-05-01T04:01:03.861Z,10.70
2019-05-01T04:03:30.411Z,14.90
2019-05-01T04:05:56.983Z,7.70
2019-05-01T04:08:23.871Z,7.37
2019-05-01T04:10:50.463Z,9.43
2019-05-01T04:13:16.816Z,9.30
2019-05-01T04:15:43.508Z,8.43
2019-05-01T04:18:09.958Z,11.60
2019-05-01T04:20:36.435Z,7.43
2019-05-01T04:23:02.980Z,8.43
2019-05-01T04:25:29.931Z,14.50
2019-05-01T04:27:59.056Z,8.00
2019-05-01T04:30:27.681Z,8.93
2019-05-01T04:32:56.259Z,9.27
2019-05-01T04:35:24.618Z,8.37
2019-05-01T04:37:52.072Z,7.57
2019-05-01T04:40:19.334Z,6.87
2019-05-01T04:42:46.109Z,7.77
2019-05-01T04:45:12.678Z,8.97
2019-05-01T04:47:39.143Z,8.53
2019-05-01T04:50:05.596Z,9.33
2019-05-01T04:52:32.359Z,10.90
2019-05-01T04:54:58.811Z,7.43
2019-05-01T04:57:25.332Z,8.33
2019-05-01T04:59:51.762Z,8.60
2019-05-01T05:02:20.161Z,7.80
2019-05-01T05:04:46.510Z,7.67
2019-05-01T05:07:12.971Z,8.33
2019-05-01T05:09:41.321Z,7.23
2019-05-01T05:12:10.072Z,7.77
2019-05-01T05:14:38.632Z,8.40
2019-05-01T05:17:06.978Z,9.03
2019-05-01T05:19:33.455Z,9.80
2019-05-01T05:22:00.004Z,5.87
2019-05-01T05:24:26.575Z,6.23
2019-05-01T05:26:53.066Z,8.07
2019-05-01T05:29:21.336Z,7.03
2019-05-01T05:31:49.386Z,10.17
2019-05-01T05:34:18.255Z,7.20
2019-05-01T05:36:46.445Z,7.40
2019-05-01T05:39:15.245Z,7.93
2019-05-01T05:41:41.891Z,7.43
2019-05-01T05:44:09.159Z,6.27
2019-05-01T05:46:35.611Z,6.90
2019-05-01T05:49:02.080Z,8.27
2019-05-01T05:51:30.735Z,7.83
2019-05-01T05:54:00.948Z,8.73
2019-05-01T05:56:31.105Z,8.17
2019-05-01T05:59:01.313Z,9.80
2019-05-01T06:01:30.358Z,11.10
2019-05-01T06:04:00.451Z,7.57
2019-05-01T06:06:29.212Z,9.00
2019-05-01T06:08:56.262Z,6.83
2019-05-01T06:11:29.759Z,7.97
2019-05-01T06:13:58.973Z,8.07
2019-05-01T06:16:27.150Z,8.60
2019-05-01T06:18:55.595Z,7.87
2019-05-01T06:21:23.957Z,7.13
2019-05-01T06:23:56.963Z,8.07
2019-05-01T06:26:23.201Z,9.53
2019-05-01T06:28:49.749Z,10.43
2019-05-01T06:31:23.017Z,10.40
2019-05-01T06:33:53.000Z,12.70
2019-05-01T06:36:17.583Z,8.50
2019-05-01T06:38:44.431Z,11.13
2019-05-01T06:41:11.698Z,11.07
2019-05-01T06:43:43.772Z,8.37
2019-05-01T06:46:10.327Z,10.00
2019-05-01T06:48:38.678Z,10.50
2019-05-01T06:51:06.949Z,11.97
2019-05-01T06:53:36.149Z,10.47
2019-05-01T06:56:01.692Z,12.23
2019-05-01T06:58:28.474Z,10.70
2019-05-01T07:00:54.838Z,12.83
2019-05-01T07:03:21.288Z,10.83
2019-05-01T07:05:49.084Z,9.90
2019-05-01T07:08:24.294Z,9.37
2019-05-01T07:10:45.912Z,15.13
2019-05-01T07:13:12.551Z,15.33
2019-05-01T07:15:39.015Z,13.37
2019-05-01T07:18:05.579Z,14.13
2019-05-01T07:20:33.178Z,15.83
2019-05-01T07:22:59.628Z,16.77
2019-05-01T07:25:26.199Z,17.73
2019-05-01T07:27:54.005Z,17.50
2019-05-01T07:30:24.744Z,16.43
2019-05-01T07:32:51.313Z,19.23
2019-05-01T07:35:17.790Z,20.07
2019-05-01T07:37:44.362Z,20.77
2019-05-01T07:40:11.130Z,21.83
2019-05-01T07:42:43.623Z,21.27
2019-05-01T07:45:09.974Z,21.53
2019-05-01T07:47:38.408Z,19.67
2019-05-01T07:50:06.927Z,23.37
2019-05-01T07:52:33.579Z,20.52
2019-05-01T07:55:00.235Z,16.95
2019-05-01T07:57:26.705Z,19.73
2019-05-01T07:59:53.263Z,19.90
2019-05-01T08:02:19.744Z,22.60
2019-05-01T08:04:46.187Z,18.37
2019-05-01T08:07:12.779Z,23.65
2019-05-01T08:09:39.231Z,26.42
2019-05-01T08:12:05.699Z,24.00
2019-05-01T08:14:32.147Z,23.73
2019-05-01T08:16:58.659Z,26.42
2019-05-01T08:19:27.000Z,25.48
2019-05-01T08:21:56.946Z,25.12
2019-05-01T08:24:24.703Z,22.90
2019-05-01T08:26:51.424Z,21.30
2019-05-01T08:29:19.715Z,21.90
2019-05-01T08:31:48.068Z,24.75
2019-05-01T08:34:16.432Z,26.25
2019-05-01T08:36:47.323Z,26.87
2019-05-01T08:39:13.763Z,26.52
2019-05-01T08:41:39.518Z,27.93
2019-05-01T08:44:07.104Z,26.97
2019-05-01T08:46:35.351Z,28.20
2019-05-01T08:49:06.735Z,28.85
2019-05-01T08:51:34.952Z,26.60
2019-05-01T08:54:00.867Z,28.62
2019-05-01T08:56:27.327Z,29.98
2019-05-01T08:58:53.703Z,25.52
2019-05-01T09:01:20.250Z,28.20
2019-05-01T09:03:49.757Z,28.57
2019-05-01T09:06:15.079Z,30.70
2019-05-01T09:08:41.463Z,28.07
2019-05-01T09:11:08.023Z,29.57
2019-05-01T09:13:34.526Z,30.20
2019-05-01T09:16:00.975Z,29.18
2019-05-01T09:18:27.325Z,25.50
2019-05-01T09:20:55.615Z,28.20
2019-05-01T09:23:22.167Z,29.72
2019-05-01T09:25:53.323Z,26.40
2019-05-01T09:28:21.675Z,28.65
2019-05-01T09:30:48.175Z,28.40
2019-05-01T09:33:14.727Z,28.92
2019-05-01T09:35:45.267Z,25.68
2019-05-01T09:38:09.605Z,27.32
2019-05-01T09:40:36.115Z,25.30
2019-05-01T09:43:02.669Z,24.23
2019-05-01T09:45:29.129Z,20.50
2019-05-01T09:47:55.585Z,21.05
2019-05-01T09:50:25.767Z,21.27
2019-05-01T09:52:55.084Z,26.35
2019-05-01T09:55:23.073Z,25.75
2019-05-01T09:57:50.828Z,23.77
2019-05-01T10:00:19.416Z,22.82
2019-05-01T10:02:45.969Z,24.23
2019-05-01T10:05:12.359Z,24.75
2019-05-01T10:07:38.911Z,24.63
2019-05-01T10:10:05.487Z,22.27
2019-05-01T10:12:31.935Z,22.65
2019-05-01T10:14:58.311Z,19.27
2019-05-01T10:17:24.763Z,23.30
2019-05-01T10:19:51.231Z,23.52
2019-05-01T10:22:17.615Z,23.90
2019-05-01T10:24:44.068Z,22.02
2019-05-01T10:27:12.495Z,19.80
2019-05-01T10:29:38.947Z,18.27
2019-05-01T10:32:07.339Z,21.57
2019-05-01T10:34:38.689Z,18.90
2019-05-01T10:37:04.331Z,19.85
2019-05-01T10:39:30.703Z,17.20
2019-05-01T10:42:00.020Z,15.10
2019-05-01T10:44:26.363Z,21.68
2019-05-01T10:46:52.781Z,17.27
2019-05-01T10:49:19.268Z,17.80
2019-05-01T10:51:45.769Z,16.95
2019-05-01T10:54:12.233Z,15.32
2019-05-01T10:56:38.695Z,18.85
2019-05-01T10:59:05.256Z,17.27
2019-05-01T11:01:33.669Z,21.20
2019-05-01T11:04:00.116Z,19.42
2019-05-01T11:06:26.582Z,19.07
2019-05-01T11:08:53.039Z,17.23
2019-05-01T11:11:19.407Z,17.32
2019-05-01T11:13:45.852Z,18.80
2019-05-01T11:16:13.439Z,23.62
2019-05-01T11:18:39.918Z,19.95
2019-05-01T11:21:06.399Z,20.30
2019-05-01T11:23:32.851Z,22.25
2019-05-01T11:25:59.374Z,23.47
2019-05-01T11:28:25.947Z,21.80
2019-05-01T11:30:52.319Z,19.57
2019-05-01T11:33:20.692Z,16.67
2019-05-01T11:35:49.008Z,17.45
2019-05-01T11:38:17.740Z,18.42
2019-05-01T11:40:46.085Z,19.65
2019-05-01T11:43:12.572Z,20.10
2019-05-01T11:45:39.024Z,20.50
2019-05-01T11:48:05.624Z,21.57
2019-05-01T11:50:32.077Z,20.55
2019-05-01T11:52:58.647Z,22.85
2019-05-01T11:55:24.990Z,19.75
2019-05-01T11:57:51.383Z,20.30
2019-05-01T12:00:18.659Z,23.02
2019-05-01T12:02:45.127Z,25.17
2019-05-01T12:05:11.578Z,21.45
2019-05-01T12:07:38.431Z,26.15
2019-05-01T12:10:05.325Z,26.35
2019-05-01T12:12:33.571Z,21.27
2019-05-01T12:15:00.335Z,24.55
2019-05-01T12:17:28.686Z,25.68
2019-05-01T12:19:55.159Z,22.40
2019-05-01T12:22:21.613Z,25.25
2019-05-01T12:24:47.975Z,21.87
2019-05-01T12:27:14.459Z,24.82
2019-05-01T12:29:40.827Z,22.62
2019-05-01T12:32:07.279Z,22.50
2019-05-01T12:34:33.744Z,24.25
2019-05-01T12:37:07.923Z,26.57
2019-05-01T12:39:34.392Z,22.32
2019-05-01T12:42:01.749Z,22.62
2019-05-01T12:44:28.311Z,20.32
2019-05-01T12:46:56.688Z,21.12
2019-05-01T12:49:23.155Z,16.95
2019-05-01T12:51:51.610Z,19.00
2019-05-01T12:54:19.908Z,20.85
2019-05-01T12:56:48.185Z,22.02
2019-05-01T12:59:14.618Z,19.67
2019-05-01T13:01:41.087Z,18.30
2019-05-01T13:04:07.543Z,19.57
2019-05-01T13:06:34.017Z,21.77
2019-05-01T13:09:00.476Z,18.48
2019-05-01T13:11:26.947Z,21.30
2019-05-01T13:13:55.328Z,21.07
2019-05-01T13:16:21.907Z,17.70
2019-05-01T13:18:48.351Z,19.87
2019-05-01T13:21:14.931Z,16.77
2019-05-01T13:23:41.279Z,16.67
2019-05-01T13:26:09.712Z,19.27
2019-05-01T13:28:36.169Z,15.68
2019-05-01T13:31:04.556Z,14.30
2019-05-01T13:33:30.907Z,16.27
2019-05-01T13:35:57.395Z,15.30
2019-05-01T13:38:23.836Z,16.60
2019-05-01T13:40:50.411Z,17.27
2019-05-01T13:43:16.971Z,17.35
2019-05-01T13:45:43.436Z,17.55
2019-05-01T13:48:09.791Z,20.23
2019-05-01T13:50:36.283Z,16.75
2019-05-01T13:53:02.737Z,18.00
2019-05-01T13:55:29.282Z,16.40
2019-05-01T13:57:55.680Z,15.38
2019-05-01T14:00:24.131Z,14.75
2019-05-01T14:02:50.667Z,13.53
2019-05-01T14:05:17.295Z,14.35
2019-05-01T14:07:43.764Z,14.47
2019-05-01T14:10:10.419Z,14.60
2019-05-01T14:12:36.824Z,15.32
2019-05-01T14:15:03.564Z,15.40
2019-05-01T14:17:30.127Z,14.47
2019-05-01T14:19:58.385Z,14.20
2019-05-01T14:22:26.679Z,14.13
2019-05-01T14:24:54.947Z,13.20
2019-05-01T14:27:21.322Z,12.80
2019-05-01T14:29:47.779Z,13.53
2019-05-01T14:32:14.249Z,14.33
2019-05-01T14:34:40.695Z,13.38
2019-05-01T14:37:07.083Z,13.20
2019-05-01T14:39:33.539Z,13.25
2019-05-01T14:41:59.907Z,13.88
2019-05-01T14:44:36.312Z,19.75
2019-05-01T14:46:54.977Z,15.15
2019-05-01T14:49:21.427Z,14.55
2019-05-01T14:51:48.274Z,13.72
2019-05-01T14:54:14.830Z,13.10
2019-05-01T14:56:43.325Z,12.30
2019-05-01T14:59:09.543Z,13.05
2019-05-01T15:01:36.202Z,12.18
2019-05-01T15:04:02.877Z,12.05
2019-05-01T15:06:29.323Z,11.63
2019-05-01T15:08:55.787Z,13.30
2019-05-01T15:11:22.149Z,18.15
2019-05-01T15:13:51.267Z,29.40
2019-05-01T15:16:19.540Z,12.60
2019-05-01T15:18:48.809Z,16.82
2019-05-01T15:21:15.413Z,18.70
2019-05-01T15:23:53.127Z,37.17
2019-05-01T15:26:10.371Z,116.62
2019-05-01T15:28:36.936Z,31.90
2019-05-01T15:31:03.389Z,54.45
2019-05-01T15:33:29.771Z,73.05
2019-05-01T15:35:56.224Z,25.32
2019-05-01T15:38:22.815Z,36.85
2019-05-01T15:40:51.163Z,13.13
2019-05-01T15:43:19.555Z,11.68
2019-05-01T15:45:46.109Z,13.25
2019-05-01T15:48:12.676Z,10.78
2019-05-01T15:50:41.698Z,14.00
2019-05-01T15:53:07.480Z,11.10
2019-05-01T15:55:34.944Z,11.05
2019-05-01T15:58:01.335Z,11.18
2019-05-01T16:00:27.758Z,11.90
2019-05-01T16:02:54.431Z,10.98
2019-05-01T16:05:21.424Z,10.50
2019-05-01T16:07:47.959Z,11.08
2019-05-01T16:10:18.159Z,11.20
2019-05-01T16:12:46.529Z,11.38
2019-05-01T16:15:15.330Z,11.00
2019-05-01T16:17:41.806Z,16.70
2019-05-01T16:20:08.650Z,10.80
2019-05-01T16:22:35.422Z,19.17
2019-05-01T16:25:02.658Z,11.35
2019-05-01T16:27:29.254Z,11.65
2019-05-01T16:29:55.760Z,12.33
2019-05-01T16:32:22.264Z,13.60
2019-05-01T16:34:48.733Z,11.65
2019-05-01T16:37:15.221Z,13.38
2019-05-01T16:39:43.701Z,11.95
2019-05-01T16:42:10.179Z,11.78
2019-05-01T16:44:36.620Z,11.03
2019-05-01T16:47:03.080Z,14.28
2019-05-01T16:49:29.741Z,10.98
2019-05-01T16:51:56.236Z,12.10
2019-05-01T16:54:22.729Z,10.48
2019-05-01T16:56:49.071Z,10.90
2019-05-01T16:59:15.537Z,12.28
2019-05-01T17:01:43.787Z,12.73
2019-05-01T17:04:12.703Z,10.28
2019-05-01T17:06:41.062Z,12.78
2019-05-01T17:09:10.415Z,10.23
2019-05-01T17:11:36.883Z,11.83
2019-05-01T17:14:05.235Z,9.95
2019-05-01T17:16:31.703Z,11.35
2019-05-01T17:18:58.058Z,14.73
2019-05-01T17:21:24.635Z,10.98
2019-05-01T17:23:51.087Z,10.00
2019-05-01T17:26:17.879Z,9.90
2019-05-01T17:28:44.363Z,11.33
2019-05-01T17:31:10.840Z,9.58
2019-05-01T17:33:37.318Z,10.72
2019-05-01T17:36:03.878Z,9.45
2019-05-01T17:38:30.347Z,8.93
2019-05-01T17:40:56.715Z,10.28
2019-05-01T17:43:23.179Z,10.68
2019-05-01T17:45:51.075Z,9.30
2019-05-01T17:48:17.518Z,8.90
2019-05-01T17:50:44.120Z,8.73
2019-05-01T17:53:10.484Z,10.80
2019-05-01T17:55:36.948Z,8.65
2019-05-01T17:58:03.395Z,9.05
2019-05-01T18:00:30.895Z,10.48
2019-05-01T18:02:59.139Z,11.35
2019-05-01T18:05:27.395Z,10.60
2019-05-01T18:07:53.868Z,10.40
2019-05-01T18:10:20.247Z,11.88
2019-05-01T18:12:46.623Z,10.53
2019-05-01T18:15:13.172Z,10.28
2019-05-01T18:17:39.571Z,11.53
2019-05-01T18:20:06.296Z,19.77
2019-05-01T18:22:37.152Z,14.15
2019-05-01T18:25:05.422Z,13.28
2019-05-01T18:27:36.835Z,10.82
2019-05-01T18:30:06.187Z,11.88
2019-05-01T18:32:36.343Z,11.47
2019-05-01T18:35:08.923Z,11.30
2019-05-01T18:37:36.362Z,16.30
2019-05-01T18:40:06.199Z,14.70
2019-05-01T18:42:32.568Z,11.90
2019-05-01T18:44:59.011Z,12.03
2019-05-01T18:47:25.884Z,11.40
2019-05-01T18:49:52.259Z,13.50
2019-05-01T18:52:20.764Z,12.13
2019-05-01T18:54:47.214Z,12.93
2019-05-01T18:57:13.764Z,11.47
2019-05-01T18:59:40.358Z,15.30
2019-05-01T19:02:06.807Z,14.83
2019-05-01T19:04:33.280Z,13.57
2019-05-01T19:06:59.622Z,13.97
2019-05-01T19:09:30.245Z,14.73
2019-05-01T19:11:54.844Z,15.80
2019-05-01T19:14:23.585Z,17.17
2019-05-01T19:16:50.082Z,15.50
2019-05-01T19:19:16.454Z,13.60
2019-05-01T19:21:46.557Z,15.10
2019-05-01T19:24:11.951Z,17.23
2019-05-01T19:26:42.694Z,14.53
2019-05-01T19:29:06.918Z,15.93
2019-05-01T19:31:33.469Z,14.40
2019-05-01T19:34:00.039Z,15.00
2019-05-01T19:36:26.495Z,17.13
2019-05-01T19:38:52.891Z,16.90
2019-05-01T19:41:19.444Z,14.37
2019-05-01T19:43:45.911Z,14.97
2019-05-01T19:46:12.360Z,15.53
2019-05-01T19:48:38.867Z,16.40
2019-05-01T19:51:05.330Z,13.40
2019-05-01T19:53:31.795Z,17.60
2019-05-01T19:56:00.390Z,19.73
2019-05-01T19:58:26.960Z,16.93
2019-05-01T20:00:55.311Z,20.03
2019-05-01T20:03:21.770Z,19.13
2019-05-01T20:05:48.278Z,14.33
2019-05-01T20:08:14.878Z,17.40
2019-05-01T20:10:41.262Z,17.23
2019-05-01T20:13:12.293Z,16.03
2019-05-01T20:15:36.196Z,18.70
2019-05-01T20:18:02.859Z,19.47
2019-05-01T20:20:29.415Z,15.97
2019-05-01T20:22:55.767Z,19.47
2019-05-01T20:25:22.152Z,17.73
2019-05-01T20:27:53.103Z,17.90
2019-05-01T20:30:17.007Z,20.20
2019-05-01T20:32:43.555Z,21.80
2019-05-01T20:35:10.024Z,18.83
2019-05-01T20:37:36.475Z,20.83
2019-05-01T20:40:11.427Z,17.93
2019-05-01T20:42:32.894Z,20.77
2019-05-01T20:45:05.515Z,22.37
2019-05-01T20:47:34.815Z,18.77
2019-05-01T20:49:56.175Z,20.83
2019-05-01T20:52:22.523Z,18.40
2019-05-01T20:54:49.102Z,19.63
2019-05-01T20:57:20.808Z,18.50
2019-05-01T20:59:48.176Z,18.80
2019-05-01T21:02:13.977Z,23.60
2019-05-01T21:04:42.263Z,22.87
2019-05-01T21:07:15.644Z,23.07
2019-05-01T21:09:47.916Z,19.07
2019-05-01T21:12:12.279Z,20.90
2019-05-01T21:14:38.870Z,20.93
2019-05-01T21:17:09.533Z,18.70
2019-05-01T21:19:35.889Z,20.40
2019-05-01T21:22:03.922Z,23.80
2019-05-01T21:24:30.516Z,22.17
2019-05-01T21:26:57.002Z,22.73
2019-05-01T21:29:24.034Z,20.63
2019-05-01T21:31:50.859Z,21.47
2019-05-01T21:34:17.318Z,22.63
2019-05-01T21:36:50.799Z,23.30
2019-05-01T21:39:12.564Z,21.17
2019-05-01T21:41:39.117Z,20.80
2019-05-01T21:44:06.832Z,21.80
2019-05-01T21:46:34.016Z,25.87
2019-05-01T21:49:03.376Z,25.07
2019-05-01T21:51:29.775Z,21.80
2019-05-01T21:53:56.327Z,20.90
2019-05-01T21:56:22.799Z,24.27
2019-05-01T21:58:49.248Z,23.00
2019-05-01T22:01:15.820Z,22.27
2019-05-01T22:03:42.287Z,21.43
2019-05-01T22:06:11.248Z,25.13
2019-05-01T22:08:39.126Z,24.50
2019-05-01T22:11:06.082Z,20.20
2019-05-01T22:13:32.528Z,24.10
2019-05-01T22:16:00.913Z,21.23
2019-05-01T22:18:29.259Z,26.13
2019-05-01T22:20:57.651Z,23.37
2019-05-01T22:23:26.012Z,23.63
2019-05-01T22:25:54.329Z,22.53
2019-05-01T22:28:22.715Z,23.97
2019-05-01T22:30:51.101Z,25.83
2019-05-01T22:33:17.855Z,25.60
2019-05-01T22:35:46.208Z,25.50
2019-05-01T22:38:12.671Z,24.90
2019-05-01T22:40:40.128Z,25.23
2019-05-01T22:43:06.623Z,25.30
2019-05-01T22:45:33.175Z,25.47
2019-05-01T22:47:59.746Z,23.10
2019-05-01T22:50:26.198Z,27.47
2019-05-01T22:52:52.690Z,24.10
2019-05-01T22:55:20.463Z,25.80
2019-05-01T22:57:47.499Z,23.87
2019-05-01T23:00:17.652Z,28.63
2019-05-01T23:02:44.129Z,27.13
2019-05-01T23:05:10.785Z,28.90
2019-05-01T23:07:37.251Z,28.53
2019-05-01T23:10:04.709Z,26.50
2019-05-01T23:12:31.163Z,28.27
2019-05-01T23:14:57.616Z,28.83
2019-05-01T23:17:28.572Z,27.60
2019-05-01T23:19:58.997Z,28.60
2019-05-01T23:22:23.591Z,27.90
2019-05-01T23:24:50.040Z,26.40
2019-05-01T23:27:16.424Z,26.93
2019-05-01T23:29:42.875Z,27.57
2019-05-01T23:32:09.444Z,29.13
2019-05-01T23:34:35.887Z,27.07
2019-05-01T23:37:02.563Z,31.80
2019-05-01T23:39:29.059Z,29.83
2019-05-01T23:41:55.583Z,30.03
2019-05-01T23:44:22.131Z,27.77
2019-05-01T23:46:48.620Z,26.97
2019-05-01T23:49:15.115Z,27.23
2019-05-01T23:51:41.579Z,31.73
2019-05-01T23:54:08.052Z,28.90
2019-05-01T23:56:34.998Z,31.37
2019-05-01T23:59:02.972Z,30.37
